Time;durP1;ratioP1;P1;durP2;ratioP2;P2;SDS_P1;SDS_P2;PMS_P1;PMS_P2;Temp;Humidity;BMP_temperature;BMP_pressure;BME280_temperature;BME280_humidity;BME280_pressure;Samples;Min_cycle;Max_cycle;Signal;HPM_P1;HPM_P2
2021/06/23 00:02:38;;;;;;;17.77;12.10;;;;;;;21.54;59.92;97955.56;8312840;28;20199;-66
2021/06/23 00:06:42;;;;;;;15.10;12.33;;;;;;;21.44;59.90;97947.63;8286718;28;20237;-66
2021/06/23 00:10:46;;;;;;;18.10;13.03;;;;;;;21.41;59.92;97945.25;8286482;28;20249;-66
2021/06/23 00:14:49;;;;;;;16.47;11.83;;;;;;;21.39;59.97;97950.63;8286957;28;20401;-66
2021/06/23 00:19:04;;;;;;;14.33;12.13;;;;;;;21.43;59.84;97951.19;8285448;28;20246;-66
2021/06/23 00:23:08;;;;;;;17.27;11.87;;;;;;;21.42;60.01;97960.91;8286138;28;20204;-66
2021/06/23 00:27:11;;;;;;;14.47;11.77;;;;;;;21.27;60.28;97967.53;8285998;28;20596;-66
2021/06/23 00:31:14;;;;;;;18.53;11.60;;;;;;;21.20;60.66;97961.13;8286046;28;20206;-65
2021/06/23 00:35:16;;;;;;;17.03;10.67;;;;;;;21.29;60.77;97974.31;8285781;28;20235;-66
2021/06/23 00:39:22;;;;;;;13.93;10.20;;;;;;;21.38;61.02;97983.22;8285566;28;20205;-66
2021/06/23 00:43:25;;;;;;;14.33;11.37;;;;;;;21.26;61.38;97966.69;8285372;28;20209;-65
2021/06/23 00:47:28;;;;;;;24.60;10.50;;;;;;;21.38;61.40;97975.31;8285306;28;20484;-66
2021/06/23 00:51:31;;;;;;;13.53;10.20;;;;;;;21.38;61.39;97991.13;8285292;28;20283;-66
2021/06/23 00:55:35;;;;;;;14.20;10.23;;;;;;;21.29;61.38;97984.03;8285158;28;20219;-66
2021/06/23 00:59:38;;;;;;;13.73;9.93;;;;;;;21.19;61.46;97986.66;8285138;28;20349;-66
2021/06/23 01:03:41;;;;;;;14.37;10.87;;;;;;;21.24;61.52;97973.88;8308631;28;20281;-65
2021/06/23 01:07:44;;;;;;;17.90;10.53;;;;;;;21.05;62.20;97982.56;8316810;28;20539;-65
2021/06/23 01:12:12;;;;;;;14.47;10.60;;;;;;;21.22;61.54;97977.63;8316958;28;20233;-65
2021/06/23 01:16:16;;;;;;;13.03;9.87;;;;;;;21.22;61.14;97985.53;8316840;28;20205;-66
2021/06/23 01:20:19;;;;;;;10.97;9.63;;;;;;;21.15;61.33;97984.41;8316847;28;20319;-65
2021/06/23 01:24:24;;;;;;;15.57;10.37;;;;;;;21.15;61.11;97998.44;8316876;28;20209;-66
2021/06/23 01:28:27;;;;;;;12.27;10.83;;;;;;;21.16;61.44;97996.63;8316421;28;20210;-66
2021/06/23 01:32:31;;;;;;;12.57;10.50;;;;;;;21.02;61.91;97997.81;8316594;28;20208;-67
2021/06/23 01:36:34;;;;;;;13.57;11.03;;;;;;;21.02;61.84;97976.75;8316561;28;20215;-66
2021/06/23 01:40:38;;;;;;;12.80;10.73;;;;;;;20.92;61.72;97997.75;8316364;28;20201;-66
2021/06/23 01:44:41;;;;;;;12.83;11.53;;;;;;;20.92;61.75;97975.88;8316512;28;20398;-66
2021/06/23 01:48:44;;;;;;;12.63;10.97;;;;;;;20.89;62.00;97977.81;8316141;28;20204;-66
2021/06/23 01:52:47;;;;;;;15.83;11.30;;;;;;;20.82;62.21;97991.63;8316249;28;20389;-66
2021/06/23 01:56:51;;;;;;;14.90;11.70;;;;;;;20.84;61.87;98021.28;8316136;28;20208;-66
2021/06/23 02:00:58;;;;;;;15.93;12.07;;;;;;;20.99;62.00;98025.22;8315693;28;20489;-66
2021/06/23 02:05:04;;;;;;;16.23;12.03;;;;;;;20.95;61.84;98017.75;8316023;28;20253;-66
2021/06/23 02:09:11;;;;;;;13.40;12.00;;;;;;;20.95;61.66;98033.53;8315785;28;20410;-66
2021/06/23 02:13:48;;;;;;;17.73;12.63;;;;;;;20.81;61.90;98018.91;8315874;28;20355;-65
2021/06/23 02:17:53;;;;;;;19.10;12.47;;;;;;;20.67;62.76;97999.88;8315577;28;20205;-66
2021/06/23 02:21:56;;;;;;;16.60;11.20;;;;;;;20.60;62.51;98005.78;8315535;28;20492;-65
2021/06/23 02:25:59;;;;;;;15.90;11.33;;;;;;;20.61;63.04;97983.78;8315235;28;20229;-65
2021/06/23 02:30:06;;;;;;;14.97;11.60;;;;;;;20.55;63.12;97969.31;8282543;28;20206;-66
2021/06/23 02:34:11;;;;;;;19.20;11.80;;;;;;;20.46;63.31;97986.72;8282543;28;20212;-66
2021/06/23 02:38:14;;;;;;;15.97;12.07;;;;;;;20.64;63.04;97980.91;8282629;28;20206;-66
2021/06/23 02:42:17;;;;;;;15.17;11.10;;;;;;;20.76;62.51;97994.81;8281663;28;20476;-66
2021/06/23 02:46:21;;;;;;;22.47;11.03;;;;;;;20.66;62.74;97990.31;8282260;28;20252;-66
2021/06/23 02:50:24;;;;;;;17.40;12.33;;;;;;;20.58;63.05;97979.59;8282094;28;20297;-66
2021/06/23 02:54:28;;;;;;;13.50;12.10;;;;;;;20.51;63.07;97989.78;8282104;28;20224;-66
2021/06/23 02:58:32;;;;;;;12.73;11.37;;;;;;;20.44;63.06;97987.81;8281977;28;20210;-66
2021/06/23 03:02:36;;;;;;;15.13;12.23;;;;;;;20.32;63.41;97989.69;8281851;28;20203;-66
2021/06/23 03:06:39;;;;;;;12.33;11.00;;;;;;;20.54;62.89;97975.53;8281716;28;20240;-66
2021/06/23 03:10:43;;;;;;;16.63;12.47;;;;;;;20.39;63.31;97963.69;8282338;28;20251;-66
2021/06/23 03:14:46;;;;;;;14.43;11.77;;;;;;;20.37;63.14;97965.63;8281926;28;20208;-66
2021/06/23 03:18:50;;;;;;;15.70;11.53;;;;;;;20.45;62.69;97971.09;8281763;28;20206;-66
2021/06/23 03:22:52;;;;;;;16.37;12.60;;;;;;;20.30;63.53;97970.56;8282019;28;20531;-66
2021/06/23 03:26:55;;;;;;;17.50;11.83;;;;;;;20.29;63.19;97964.47;8282024;28;20244;-66
2021/06/23 03:30:58;;;;;;;16.73;11.50;;;;;;;20.24;63.12;97968.47;8281614;28;20209;-66
2021/06/23 03:35:03;;;;;;;18.40;12.47;;;;;;;20.28;63.71;97988.28;8281852;28;20384;-66
2021/06/23 03:39:05;;;;;;;16.57;13.13;;;;;;;20.34;63.06;98003.53;8281885;28;20233;-65
2021/06/23 03:43:08;;;;;;;19.03;12.13;;;;;;;20.51;62.96;98002.13;8281976;28;20213;-66
2021/06/23 03:47:17;;;;;;;16.53;12.50;;;;;;;20.51;62.96;97992.41;8281576;28;20238;-66
2021/06/23 03:51:21;;;;;;;16.00;12.20;;;;;;;20.58;62.00;98003.28;8281332;28;20222;-65
2021/06/23 03:55:26;;;;;;;15.67;12.90;;;;;;;20.59;62.24;97999.66;8287352;28;20218;-66
2021/06/23 03:59:29;;;;;;;14.47;12.97;;;;;;;20.50;62.58;98006.56;8287659;28;20387;-66
2021/06/23 04:03:32;;;;;;;15.50;13.03;;;;;;;20.43;62.73;98012.47;8286977;28;20209;-66
2021/06/23 04:07:36;;;;;;;14.90;13.40;;;;;;;20.48;62.92;98003.19;8287023;28;20230;-66
2021/06/23 04:11:39;;;;;;;14.77;13.27;;;;;;;20.48;62.79;97999.75;8287149;28;20241;-65
2021/06/23 04:15:41;;;;;;;21.50;14.07;;;;;;;20.45;63.25;98010.53;8287281;28;20201;-66
2021/06/23 04:19:44;;;;;;;15.30;12.87;;;;;;;20.49;63.16;98023.28;8286948;28;20372;-66
2021/06/23 04:23:48;;;;;;;16.63;12.60;;;;;;;20.48;63.31;98028.66;8286838;28;20209;-66
2021/06/23 04:27:51;;;;;;;16.13;13.60;;;;;;;20.46;62.79;98020.06;8286461;28;20265;-65
2021/06/23 04:31:54;;;;;;;16.67;14.13;;;;;;;20.42;63.30;98030.03;8286276;28;20205;-66
2021/06/23 04:35:59;;;;;;;16.90;13.60;;;;;;;20.39;63.14;98025.03;8285954;28;20249;-66
2021/06/23 04:40:06;;;;;;;16.20;13.93;;;;;;;20.53;62.75;98036.19;8285571;28;20209;-65
2021/06/23 04:44:09;;;;;;;17.17;14.30;;;;;;;20.58;62.97;98045.38;8285096;28;20218;-65
2021/06/23 04:48:12;;;;;;;19.10;13.83;;;;;;;20.60;62.71;98042.63;8285609;28;20234;-66
2021/06/23 04:52:15;;;;;;;17.57;14.43;;;;;;;20.62;62.78;98043.31;8285298;28;20221;-66
2021/06/23 04:56:19;;;;;;;18.80;14.00;;;;;;;20.64;63.05;98044.03;8284995;28;20209;-66
2021/06/23 05:00:22;;;;;;;19.90;15.67;;;;;;;20.66;63.33;98037.69;8284709;28;20202;-65
2021/06/23 05:04:25;;;;;;;18.10;15.53;;;;;;;20.62;63.55;98049.44;8284181;28;20275;-65
2021/06/23 05:08:28;;;;;;;19.60;12.87;;;;;;;20.69;63.73;98062.88;8284658;28;20309;-67
2021/06/23 05:12:33;;;;;;;16.27;13.07;;;;;;;21.22;61.71;98057.47;8284945;28;20236;-67
2021/06/23 05:16:37;;;;;;;16.67;12.20;;;;;;;21.44;60.86;98053.00;8284440;28;20379;-68
2021/06/23 05:20:40;;;;;;;20.40;14.63;;;;;;;21.46;60.72;98051.06;8267806;28;20198;-68
2021/06/23 05:24:44;;;;;;;20.07;13.30;;;;;;;21.65;60.37;98045.00;8253291;28;20198;-68
2021/06/23 05:28:48;;;;;;;15.83;14.17;;;;;;;21.58;60.83;98038.63;8280816;28;20245;-68
2021/06/23 05:32:50;;;;;;;16.07;13.70;;;;;;;21.62;60.39;98040.00;8284781;28;20202;-68
2021/06/23 05:36:53;;;;;;;19.93;17.30;;;;;;;21.40;59.84;98051.56;8284341;28;20375;-66
2021/06/23 05:40:56;;;;;;;20.07;18.07;;;;;;;21.25;61.22;98040.59;8283887;28;20205;-66
2021/06/23 05:45:00;;;;;;;23.53;18.37;;;;;;;21.08;61.36;98040.25;8283369;28;20207;-66
2021/06/23 05:49:03;;;;;;;22.37;19.70;;;;;;;21.02;61.78;98059.19;8283313;28;20322;-66
2021/06/23 05:53:06;;;;;;;24.17;18.23;;;;;;;20.86;62.22;98069.34;8283806;28;20205;-66
2021/06/23 05:57:08;;;;;;;27.20;19.97;;;;;;;20.66;62.91;98084.22;8283777;28;20206;-66
2021/06/23 06:01:13;;;;;;;19.43;17.63;;;;;;;20.75;62.49;98083.41;8283532;28;20203;-66
2021/06/23 06:05:16;;;;;;;24.07;19.70;;;;;;;20.98;62.37;98081.50;8283508;28;20230;-66
2021/06/23 06:09:19;;;;;;;25.27;21.23;;;;;;;20.75;62.36;98077.31;8283412;28;20246;-66
2021/06/23 06:13:23;;;;;;;22.53;20.20;;;;;;;20.95;62.49;98067.75;8283172;28;20406;-66
2021/06/23 06:17:27;;;;;;;26.27;21.20;;;;;;;21.14;62.25;98081.00;8283045;28;20202;-66
2021/06/23 06:21:30;;;;;;;25.83;21.37;;;;;;;21.14;62.05;98073.09;8282928;28;20240;-66
2021/06/23 06:25:33;;;;;;;21.47;19.10;;;;;;;21.05;62.84;98079.16;8282624;28;20201;-66
2021/06/23 06:29:35;;;;;;;22.30;19.37;;;;;;;21.29;62.39;98098.13;8282529;28;20234;-66
2021/06/23 06:33:39;;;;;;;21.80;19.43;;;;;;;21.28;62.41;98103.50;8282847;28;20390;-66
2021/06/23 06:37:42;;;;;;;24.40;20.47;;;;;;;21.37;62.15;98104.53;8282548;28;20324;-66
2021/06/23 06:41:45;;;;;;;23.03;20.33;;;;;;;21.40;62.14;98102.47;8282544;28;20206;-66
2021/06/23 06:45:49;;;;;;;25.43;20.87;;;;;;;21.40;62.23;98093.72;8282596;28;20210;-66
2021/06/23 06:49:54;;;;;;;26.73;22.03;;;;;;;21.62;62.15;98109.34;8282305;28;20233;-66
2021/06/23 06:53:57;;;;;;;21.80;19.47;;;;;;;21.75;61.39;98109.09;8282055;28;20209;-66
2021/06/23 06:58:00;;;;;;;24.30;21.40;;;;;;;22.06;60.73;98103.75;8282288;28;20226;-66
2021/06/23 07:02:03;;;;;;;22.67;19.77;;;;;;;22.08;60.28;98106.25;8281659;28;20205;-66
2021/06/23 07:06:07;;;;;;;23.80;21.40;;;;;;;22.02;60.57;98113.72;8281589;28;20221;-66
2021/06/23 07:10:11;;;;;;;25.37;22.57;;;;;;;22.07;60.49;98113.34;8281981;28;20527;-67
2021/06/23 07:14:14;;;;;;;28.80;24.50;;;;;;;22.08;60.65;98120.25;8281994;28;20215;-66
2021/06/23 07:18:16;;;;;;;24.43;21.53;;;;;;;22.15;60.32;98117.91;8281739;28;20227;-66
2021/06/23 07:22:22;;;;;;;27.53;24.07;;;;;;;22.22;60.24;98126.97;8281655;28;20210;-66
2021/06/23 07:26:25;;;;;;;27.13;24.20;;;;;;;22.09;60.45;98135.13;8281678;28;20482;-66
2021/06/23 07:30:29;;;;;;;26.43;23.57;;;;;;;22.13;60.33;98135.69;8288005;28;20220;-66
2021/06/23 07:36:31;;;;;;;25.93;23.23;;;;;;;22.20;60.92;98140.28;8288159;28;20284;-66
2021/06/23 07:39:00;;;;;;;26.67;22.47;;;;;;;22.11;60.98;98143.72;8287243;28;20205;-65
2021/06/23 07:43:03;;;;;;;25.00;21.70;;;;;;;22.22;60.32;98154.16;8286657;28;20197;-65
2021/06/23 07:47:08;;;;;;;26.27;23.40;;;;;;;22.09;60.58;98156.22;8286565;28;20228;-65
2021/06/23 07:51:13;;;;;;;24.70;22.07;;;;;;;22.28;60.98;98150.16;8286309;28;20195;-65
2021/06/23 08:08:37;;;;;;;24.00;20.90;;;;;;;23.14;58.94;98157.34;8284849;28;20240;-66
2021/06/23 08:12:42;;;;;;;27.93;22.70;;;;;;;23.06;58.78;98154.59;8284181;28;20341;-67
2021/06/23 08:16:48;;;;;;;25.77;23.13;;;;;;;23.10;57.94;98148.06;8285929;28;20224;-66
2021/06/23 08:20:51;;;;;;;27.63;23.60;;;;;;;22.86;57.98;98145.84;8284182;28;20204;-66
2021/06/23 08:24:54;;;;;;;22.60;20.20;;;;;;;23.22;58.53;98153.00;8286706;28;20211;-67
2021/06/23 08:28:58;;;;;;;24.50;20.50;;;;;;;23.40;58.32;98160.22;8286636;28;20240;-67
2021/06/23 08:33:01;;;;;;;21.53;19.33;;;;;;;23.42;56.83;98148.50;8286803;28;20206;-67
2021/06/23 08:37:04;;;;;;;23.80;21.17;;;;;;;23.48;58.08;98144.47;8286831;28;20205;-67
2021/06/23 08:41:07;;;;;;;21.37;19.10;;;;;;;23.74;56.89;98144.63;8285409;28;20214;-67
2021/06/23 08:45:13;;;;;;;24.70;19.47;;;;;;;23.71;56.87;98147.53;8286264;28;20276;-66
2021/06/23 08:49:15;;;;;;;22.63;19.97;;;;;;;23.85;56.62;98143.59;8286352;28;20230;-68
2021/06/23 08:53:18;;;;;;;22.43;20.13;;;;;;;23.85;56.52;98146.25;8286145;28;20394;-68
2021/06/23 08:57:22;;;;;;;24.30;21.60;;;;;;;23.78;56.83;98150.44;8286138;28;20588;-67
2021/06/23 09:01:26;;;;;;;20.67;18.77;;;;;;;23.85;56.82;98148.06;8285906;28;20202;-67
2021/06/23 09:05:46;;;;;;;24.23;18.83;;;;;;;23.81;56.55;98151.00;8286079;28;20228;-67
2021/06/23 09:09:49;;;;;;;21.93;17.63;;;;;;;23.86;57.08;98155.03;8286282;28;20255;-67
2021/06/23 09:13:51;;;;;;;20.83;17.73;;;;;;;23.99;57.29;98140.47;8286018;28;20210;-67
2021/06/23 09:18:10;;;;;;;45.90;20.77;;;;;;;24.13;56.96;98131.19;8285443;28;20207;-68
2021/06/23 09:22:38;;;;;;;28.87;20.53;;;;;;;24.23;56.45;98143.50;8282093;28;20377;-69
2021/06/23 09:26:41;;;;;;;20.03;18.13;;;;;;;23.97;57.32;98150.38;8269923;28;20238;-69
2021/06/23 09:30:45;;;;;;;21.67;19.37;;;;;;;23.97;57.58;98152.16;8259205;28;20251;-69
2021/06/23 09:34:53;;;;;;;19.50;17.60;;;;;;;23.97;58.44;98152.16;8284792;28;20205;-69
2021/06/23 09:38:56;;;;;;;20.50;17.77;;;;;;;24.05;57.67;98151.44;8280857;28;20205;-69
2021/06/23 09:43:03;;;;;;;19.43;17.13;;;;;;;24.35;56.42;98145.78;8252348;28;20384;-68
2021/06/23 09:47:06;;;;;;;20.03;17.03;;;;;;;24.60;55.96;98140.75;8266952;28;20207;-69
2021/06/23 09:51:13;;;;;;;18.80;17.00;;;;;;;24.81;55.65;98148.38;8251665;28;20423;-67
2021/06/23 09:55:15;;;;;;;18.10;15.77;;;;;;;24.89;55.95;98152.88;8251787;28;20219;-68
2021/06/23 09:59:26;;;;;;;21.23;18.97;;;;;;;24.63;55.20;98152.84;8251751;28;20230;-67
2021/06/23 10:03:30;;;;;;;20.40;18.27;;;;;;;24.52;56.28;98161.84;8272956;28;20209;-68
2021/06/23 10:07:39;;;;;;;20.43;16.23;;;;;;;24.66;56.10;98149.91;8283079;28;20221;-68
2021/06/23 10:11:43;;;;;;;20.03;16.43;;;;;;;24.84;55.88;98149.88;8283042;28;20238;-68
2021/06/23 10:15:48;;;;;;;19.20;17.27;;;;;;;24.82;55.06;98152.66;8282888;28;20301;-68
2021/06/23 10:19:51;;;;;;;19.10;17.30;;;;;;;24.90;54.97;98154.53;8282725;28;20215;-66
2021/06/23 10:23:56;;;;;;;19.90;17.03;;;;;;;24.73;54.44;98156.22;8282665;28;20387;-66
2021/06/23 10:27:59;;;;;;;17.50;15.70;;;;;;;24.85;54.05;98152.38;8282379;28;20431;-66
2021/06/23 10:32:04;;;;;;;23.77;15.83;;;;;;;24.87;54.44;98149.56;8282500;28;20496;-66
2021/06/23 10:36:07;;;;;;;18.47;15.63;;;;;;;24.85;55.02;98146.25;8282333;28;20206;-66
2021/06/23 10:40:14;;;;;;;14.93;13.50;;;;;;;25.05;54.65;98133.63;8282458;28;20207;-66
2021/06/23 10:44:19;;;;;;;17.17;15.43;;;;;;;25.24;54.73;98122.00;8281940;28;20208;-66
2021/06/23 10:48:22;;;;;;;16.87;15.07;;;;;;;24.87;54.72;98128.38;8282122;28;20235;-66
2021/06/23 10:52:46;;;;;;;18.63;16.83;;;;;;;26.24;52.56;98125.69;8282278;28;20205;-67
2021/06/23 10:56:50;;;;;;;16.27;14.67;;;;;;;25.83;51.91;98128.22;8282031;28;20473;-67
2021/06/23 11:01:06;;;;;;;17.53;15.17;;;;;;;27.00;49.82;98121.06;8281546;28;20212;-66
2021/06/23 11:05:11;;;;;;;16.03;14.30;;;;;;;26.24;49.30;98123.03;8281653;28;20214;-66
2021/06/23 11:09:22;;;;;;;18.17;16.23;;;;;;;26.35;48.22;98124.56;8282407;28;20246;-66
2021/06/23 11:13:27;;;;;;;15.90;14.27;;;;;;;27.33;46.14;98121.00;8282212;28;20401;-66
2021/06/23 11:17:31;;;;;;;14.57;13.13;;;;;;;27.00;47.46;98110.44;8282111;28;20205;-66
2021/06/23 11:21:34;;;;;;;14.37;13.03;;;;;;;26.63;49.10;98111.78;8282059;28;20208;-67
2021/06/23 11:25:38;;;;;;;13.90;12.47;;;;;;;27.22;47.54;98113.38;8281986;28;20240;-67
2021/06/23 11:29:43;;;;;;;13.57;11.93;;;;;;;27.69;45.75;98117.88;8281841;28;20227;-67
2021/06/23 11:33:51;;;;;;;13.30;11.73;;;;;;;28.17;44.40;98128.47;8281771;28;20211;-67
2021/06/23 11:37:54;;;;;;;12.53;11.23;;;;;;;28.41;45.05;98114.97;8281784;28;20203;-69
2021/06/23 11:41:57;;;;;;;11.73;10.63;;;;;;;28.74;44.32;98112.06;8282026;28;20213;-68
2021/06/23 11:46:01;;;;;;;11.77;10.70;;;;;;;28.81;43.69;98114.84;8281922;28;20205;-68
2021/06/23 11:50:07;;;;;;;13.83;12.50;;;;;;;28.05;41.97;98114.75;8282007;28;20255;-69
2021/06/23 11:54:10;;;;;;;11.80;10.67;;;;;;;28.69;43.23;98117.09;8281600;28;20204;-68
2021/06/23 11:58:13;;;;;;;11.10;10.10;;;;;;;28.58;41.08;98121.03;8281627;28;20504;-69
2021/06/23 12:02:17;;;;;;;10.40;9.43;;;;;;;28.91;41.63;98125.25;8281519;28;20209;-69
2021/06/23 12:06:20;;;;;;;9.60;8.63;;;;;;;29.37;41.49;98122.47;8280638;28;20301;-69
2021/06/23 12:10:25;;;;;;;9.70;8.70;;;;;;;29.00;41.65;98118.84;8280654;28;20246;-69
2021/06/23 12:14:28;;;;;;;9.30;8.40;;;;;;;28.90;40.62;98116.44;8278580;28;20388;-69
2021/06/23 12:18:33;;;;;;;9.47;8.50;;;;;;;28.97;40.70;98117.34;8286473;28;20425;-69
2021/06/23 12:22:37;;;;;;;9.20;8.40;;;;;;;29.55;41.18;98106.06;8286454;28;20408;-69
2021/06/23 12:26:40;;;;;;;9.43;8.30;;;;;;;28.69;43.56;98113.63;8284133;28;20522;-69
2021/06/23 12:30:45;;;;;;;9.60;8.70;;;;;;;28.99;42.80;98096.66;8286736;28;20235;-69
2021/06/23 12:34:49;;;;;;;9.43;7.93;;;;;;;29.44;41.91;98096.72;8286811;28;20487;-69
2021/06/23 12:38:52;;;;;;;10.47;8.17;;;;;;;29.48;41.16;98097.16;8286860;28;20486;-69
2021/06/23 12:42:55;;;;;;;11.20;7.20;;;;;;;29.82;41.11;98097.41;8286633;28;20205;-69
2021/06/23 12:46:58;;;;;;;7.90;7.20;;;;;;;29.17;40.36;98092.88;8286169;28;20204;-69
2021/06/23 12:51:03;;;;;;;7.80;7.10;;;;;;;29.71;40.24;98097.03;8286045;28;20232;-69
2021/06/23 12:55:06;;;;;;;8.70;7.77;;;;;;;29.65;40.53;98089.78;8278717;28;20200;-68
2021/06/23 12:59:09;;;;;;;8.20;7.40;;;;;;;29.61;40.35;98084.81;8269125;28;20198;-69
2021/06/23 13:03:12;;;;;;;6.60;6.00;;;;;;;29.70;38.11;98076.69;8279202;28;20276;-69
2021/06/23 13:07:16;;;;;;;8.70;6.23;;;;;;;29.87;38.56;98072.81;8284997;28;20235;-68
2021/06/23 13:11:19;;;;;;;8.37;6.40;;;;;;;29.83;39.50;98063.53;8284938;28;20245;-69
2021/06/23 13:15:22;;;;;;;7.20;6.50;;;;;;;30.00;39.73;98080.13;8285234;28;20464;-70
2021/06/23 13:19:25;;;;;;;7.53;6.80;;;;;;;30.08;39.35;98063.16;8284833;28;20289;-71
2021/06/23 13:23:29;;;;;;;8.50;5.93;;;;;;;29.84;37.07;98073.19;8284554;28;20203;-69
2021/06/23 13:27:32;;;;;;;5.60;5.10;;;;;;;29.72;38.54;98072.00;8284048;28;20353;-69
2021/06/23 13:31:35;;;;;;;7.90;7.10;;;;;;;29.99;39.03;98079.31;8284667;28;20226;-70
2021/06/23 13:35:38;;;;;;;8.10;7.27;;;;;;;29.86;39.33;98070.34;8284707;28;20231;-69
2021/06/23 13:39:42;;;;;;;7.33;6.60;;;;;;;30.10;38.81;98063.81;8284245;28;20217;-69
2021/06/23 13:43:45;;;;;;;8.90;8.03;;;;;;;30.23;39.39;98057.78;8284316;28;20209;-69
2021/06/23 13:47:50;;;;;;;9.77;7.50;;;;;;;30.33;38.30;98060.97;8284108;28;20412;-69
2021/06/23 13:51:54;;;;;;;7.90;7.20;;;;;;;30.06;38.53;98054.53;8283468;28;20237;-69
2021/06/23 13:55:58;;;;;;;6.20;5.57;;;;;;;29.84;37.53;98056.38;8283621;28;20205;-70
2021/06/23 14:00:02;;;;;;;7.70;6.10;;;;;;;29.79;38.30;98051.59;8283397;28;20213;-70
2021/06/23 14:04:05;;;;;;;10.17;7.43;;;;;;;29.84;38.91;98045.69;8283762;28;20209;-70
2021/06/23 14:08:10;;;;;;;9.63;6.60;;;;;;;30.10;38.54;98050.44;8283637;28;20228;-68
2021/06/23 14:12:14;;;;;;;7.97;6.80;;;;;;;29.93;38.76;98050.72;8283309;28;20256;-69
2021/06/23 14:16:17;;;;;;;10.00;7.73;;;;;;;30.01;38.72;98057.78;8271470;28;20235;-69
2021/06/23 14:20:20;;;;;;;8.30;6.43;;;;;;;30.04;38.42;98052.03;8266993;28;20202;-70
2021/06/23 14:24:23;;;;;;;8.07;6.17;;;;;;;29.51;38.59;98054.09;8251231;28;20212;-69
2021/06/23 14:28:27;;;;;;;7.10;6.40;;;;;;;28.86;39.41;98064.47;8287067;28;20348;-69
2021/06/23 14:32:30;;;;;;;9.50;5.80;;;;;;;28.81;38.90;98061.56;8283465;28;20229;-70
2021/06/23 14:36:33;;;;;;;7.10;6.10;;;;;;;28.74;39.46;98063.28;8282217;28;20200;-69
2021/06/23 14:40:36;;;;;;;9.17;6.10;;;;;;;28.80;38.80;98062.56;8283377;28;20219;-69
2021/06/23 14:44:40;;;;;;;11.47;5.87;;;;;;;29.18;39.30;98049.19;8283138;28;20207;-69
2021/06/23 14:48:42;;;;;;;8.33;5.77;;;;;;;29.35;38.64;98047.97;8283058;28;20230;-69
2021/06/23 14:52:46;;;;;;;6.40;5.80;;;;;;;29.39;38.58;98032.41;8282998;28;20242;-69
2021/06/23 14:56:48;;;;;;;6.20;5.60;;;;;;;29.31;36.76;98019.19;8282936;28;20212;-68
2021/06/23 15:00:52;;;;;;;15.93;5.90;;;;;;;29.37;38.70;98010.44;8282654;28;20212;-68
2021/06/23 15:04:56;;;;;;;8.07;5.80;;;;;;;29.44;39.67;98017.50;8282815;28;20519;-69
2021/06/23 15:08:58;;;;;;;8.00;5.73;;;;;;;29.61;38.84;98003.94;8279831;28;20300;-69
2021/06/23 15:13:03;;;;;;;7.00;6.30;;;;;;;29.47;38.32;98004.81;8282444;28;20274;-69
2021/06/23 15:17:07;;;;;;;6.07;5.47;;;;;;;29.23;40.25;98004.13;8276204;28;20232;-69
2021/06/23 15:21:10;;;;;;;5.77;5.20;;;;;;;29.44;41.29;98014.84;8282682;28;20200;-69
2021/06/23 15:25:14;;;;;;;5.87;5.33;;;;;;;28.75;41.20;98015.16;8261635;28;20400;-69
2021/06/23 15:29:16;;;;;;;6.13;5.53;;;;;;;28.52;40.41;98012.56;8250164;28;20397;-69
2021/06/23 15:33:21;;;;;;;6.83;4.90;;;;;;;28.22;42.88;97993.81;8267106;28;20224;-69
2021/06/23 15:37:23;;;;;;;7.73;5.60;;;;;;;27.82;43.73;98001.09;8282211;28;20216;-69
2021/06/23 15:41:26;;;;;;;5.87;5.27;;;;;;;27.71;43.87;97996.16;8282138;28;20217;-65
2021/06/23 15:45:29;;;;;;;6.53;5.70;;;;;;;27.50;43.35;97983.50;8281962;28;20221;-65
2021/06/23 15:49:34;;;;;;;6.10;5.50;;;;;;;27.69;44.31;97974.25;8271024;28;20207;-66
2021/06/23 15:53:36;;;;;;;6.07;5.20;;;;;;;27.93;43.42;97975.09;8287958;28;20209;-66
2021/06/23 15:57:39;;;;;;;5.57;5.07;;;;;;;28.06;43.83;97977.97;8287945;28;20242;-66
2021/06/23 16:01:42;;;;;;;5.13;4.73;;;;;;;28.16;43.24;97980.38;8287155;28;20259;-66
2021/06/23 16:05:47;;;;;;;9.33;5.20;;;;;;;28.12;42.56;97974.63;8287329;28;20537;-66
2021/06/23 16:09:50;;;;;;;4.83;4.43;;;;;;;27.76;41.12;97983.19;8286646;28;20240;-66
2021/06/23 16:13:52;;;;;;;8.70;4.40;;;;;;;27.95;41.46;97983.72;8286523;28;20210;-66
2021/06/23 16:17:57;;;;;;;5.03;4.43;;;;;;;27.51;41.51;97979.81;8286449;28;20210;-66
2021/06/23 16:22:02;;;;;;;7.87;5.10;;;;;;;27.35;43.66;97979.94;8286454;28;20219;-65
2021/06/23 16:26:05;;;;;;;5.00;4.50;;;;;;;27.19;43.76;97981.66;8285836;28;20199;-66
2021/06/23 16:30:09;;;;;;;5.40;4.90;;;;;;;26.95;43.38;97973.78;8285798;28;20256;-66
2021/06/23 16:34:12;;;;;;;5.37;4.50;;;;;;;27.00;44.31;97971.44;8262081;28;20209;-66
2021/06/23 16:38:21;;;;;;;5.00;4.47;;;;;;;27.01;44.53;97965.94;8253498;28;20205;-65
2021/06/23 16:42:25;;;;;;;6.13;5.53;;;;;;;26.98;45.10;97960.13;8263042;28;20254;-66
2021/06/23 16:46:28;;;;;;;8.83;4.70;;;;;;;26.90;45.21;97966.31;8285787;28;20203;-66
2021/06/23 16:50:31;;;;;;;7.07;4.53;;;;;;;26.92;44.80;97969.63;8271823;28;20309;-66
2021/06/23 16:54:35;;;;;;;4.83;4.43;;;;;;;27.08;44.67;97968.75;8268226;28;20290;-66
2021/06/23 16:58:38;;;;;;;8.73;5.10;;;;;;;26.76;45.89;97959.88;8268165;28;20194;-66
2021/06/23 17:02:41;;;;;;;5.20;4.70;;;;;;;26.66;46.26;97968.06;8266774;28;20213;-66
2021/06/23 17:06:46;;;;;;;5.67;5.07;;;;;;;26.48;46.00;97957.63;8266374;28;20214;-66
2021/06/23 17:10:50;;;;;;;5.43;4.93;;;;;;;26.34;47.02;97966.25;8267721;28;20241;-65
2021/06/23 17:14:55;;;;;;;7.23;5.07;;;;;;;26.12;47.85;97962.47;8267834;28;20303;-69
2021/06/23 17:18:57;;;;;;;6.07;5.10;;;;;;;26.12;47.59;97965.13;8259934;28;20210;-69
2021/06/23 17:23:09;;;;;;;7.53;5.60;;;;;;;25.94;48.74;97971.41;8262045;28;20211;-69
2021/06/23 17:27:16;;;;;;;6.40;5.73;;;;;;;26.02;48.80;97983.03;8251742;28;20203;-70
2021/06/23 17:31:19;;;;;;;6.13;5.53;;;;;;;25.89;49.38;97980.84;8251725;28;20241;-70
2021/06/23 17:35:22;;;;;;;5.90;5.30;;;;;;;25.96;49.47;97975.75;8260787;28;20204;-69
2021/06/23 17:39:26;;;;;;;5.73;5.23;;;;;;;25.87;49.84;97978.34;8262660;28;20528;-68
2021/06/23 17:43:31;;;;;;;7.60;6.00;;;;;;;25.83;50.19;97984.97;8267095;28;20232;-69
2021/06/23 17:47:34;;;;;;;6.33;5.73;;;;;;;25.89;50.67;97967.56;8266794;28;20222;-69
2021/06/23 17:51:37;;;;;;;14.43;7.17;;;;;;;25.73;50.73;97963.09;8266392;28;20222;-69
2021/06/23 17:55:40;;;;;;;8.60;6.63;;;;;;;25.60;51.05;97963.56;8275114;28;20217;-65
2021/06/23 18:00:06;;;;;;;14.30;6.37;;;;;;;25.53;51.61;97963.41;8260774;28;20202;-66
2021/06/23 18:04:09;;;;;;;7.37;6.33;;;;;;;25.37;51.91;97952.75;8284088;28;20209;-65
2021/06/23 18:08:11;;;;;;;12.03;6.60;;;;;;;25.23;51.93;97953.41;8282048;28;20223;-65
2021/06/23 18:12:14;;;;;;;7.33;6.63;;;;;;;25.23;52.22;97937.50;8251384;28;20236;-65
2021/06/23 18:16:18;;;;;;;7.23;6.43;;;;;;;25.20;52.18;97946.56;8278930;28;20417;-64
2021/06/23 18:20:21;;;;;;;7.57;6.83;;;;;;;25.04;52.87;97951.81;8284181;28;20347;-65
2021/06/23 18:24:24;;;;;;;8.53;7.23;;;;;;;24.75;53.52;97945.91;8283596;28;20271;-65
2021/06/23 18:28:27;;;;;;;7.77;6.80;;;;;;;24.81;53.15;97936.50;8283503;28;20203;-65
2021/06/23 18:32:31;;;;;;;7.83;7.03;;;;;;;24.72;54.09;97925.03;8283350;28;20239;-65
2021/06/23 18:36:35;;;;;;;10.13;7.03;;;;;;;24.82;53.31;97927.56;8283349;28;20202;-66
2021/06/23 18:40:38;;;;;;;6.93;6.20;;;;;;;24.68;53.67;97938.75;8283798;28;20208;-67
2021/06/23 18:44:41;;;;;;;6.93;6.27;;;;;;;24.65;53.59;97942.53;8283221;28;20454;-65
2021/06/23 18:48:45;;;;;;;9.83;6.87;;;;;;;24.64;53.71;97921.53;8282935;28;20207;-65
2021/06/23 18:52:48;;;;;;;8.73;6.80;;;;;;;24.48;54.13;97922.22;8283087;28;20566;-65
2021/06/23 18:56:51;;;;;;;7.63;6.63;;;;;;;24.40;54.25;97929.13;8282950;28;20207;-65
2021/06/23 19:00:54;;;;;;;7.67;6.93;;;;;;;24.39;54.63;97929.31;8282887;28;20202;-65
2021/06/23 19:05:02;;;;;;;7.13;6.30;;;;;;;24.26;54.58;97919.13;8282800;28;20395;-65
2021/06/23 19:09:06;;;;;;;8.23;6.10;;;;;;;24.30;54.41;97922.31;8282477;28;20253;-65